createdAt,value
2017-08-26T00:00:56.868Z,992.93
2017-08-26T00:01:55.394Z,992.94
2017-08-26T00:02:55.322Z,992.95
2017-08-26T00:03:55.350Z,992.89
2017-08-26T00:04:56.313Z,992.89
2017-08-26T00:05:56.152Z,992.98
2017-08-26T00:06:56.996Z,992.93
2017-08-26T00:07:56.161Z,992.91
2017-08-26T00:08:56.153Z,992.99
2017-08-26T00:09:56.172Z,992.96
2017-08-26T00:10:56.125Z,993.05
2017-08-26T00:11:55.816Z,992.96
2017-08-26T00:12:56.250Z,993.00
2017-08-26T00:13:55.325Z,993.03
2017-08-26T00:14:57.067Z,992.98
2017-08-26T00:15:58.541Z,993.01
2017-08-26T00:16:55.527Z,993.00
2017-08-26T00:17:55.953Z,992.97
2017-08-26T00:18:56.716Z,992.93
2017-08-26T00:19:56.190Z,993.04
2017-08-26T00:20:56.831Z,992.96
2017-08-26T00:21:56.336Z,993.01
2017-08-26T00:22:56.708Z,993.05
2017-08-26T00:23:56.171Z,993.03
2017-08-26T00:24:56.120Z,992.99
2017-08-26T00:25:55.769Z,992.97
2017-08-26T00:26:56.361Z,993.01
2017-08-26T00:27:55.846Z,993.03
2017-08-26T00:28:56.091Z,992.98
2017-08-26T00:29:55.953Z,993.06
2017-08-26T00:30:56.167Z,992.96
2017-08-26T00:31:55.451Z,992.99
2017-08-26T00:32:56.514Z,992.95
2017-08-26T00:33:55.459Z,992.93
2017-08-26T00:34:55.394Z,992.95
2017-08-26T00:35:55.421Z,993.01
2017-08-26T00:36:57.322Z,993.00
2017-08-26T00:37:56.317Z,993.00
2017-08-26T00:38:56.719Z,992.98
2017-08-26T00:39:56.318Z,992.96
2017-08-26T00:40:57.637Z,992.96
2017-08-26T00:41:56.324Z,992.84
2017-08-26T00:42:56.472Z,992.92
2017-08-26T00:43:55.822Z,992.88
2017-08-26T00:44:56.283Z,992.87
2017-08-26T00:45:56.743Z,992.85
2017-08-26T00:46:56.407Z,992.87
2017-08-26T00:47:55.420Z,992.84
2017-08-26T00:48:56.594Z,992.85
2017-08-26T00:49:55.520Z,992.80
2017-08-26T00:50:55.616Z,992.82
2017-08-26T00:51:55.513Z,992.84
2017-08-26T00:52:55.614Z,992.90
2017-08-26T00:53:55.504Z,992.89
2017-08-26T00:54:57.153Z,992.92
2017-08-26T00:55:56.393Z,992.92
2017-08-26T00:56:56.442Z,992.93
2017-08-26T00:57:56.300Z,992.92
2017-08-26T00:58:56.386Z,992.92
2017-08-26T00:59:55.905Z,992.90
2017-08-26T01:02:35.647Z,992.95
2017-08-26T01:02:36.254Z,992.94
2017-08-26T01:02:55.608Z,992.97
2017-08-26T01:03:55.942Z,992.97
2017-08-26T01:08:06.164Z,992.98
2017-08-26T01:08:06.770Z,992.97
2017-08-26T01:08:13.699Z,992.84
2017-08-26T01:08:14.422Z,992.95
2017-08-26T01:08:55.714Z,992.87
2017-08-26T01:09:56.361Z,992.81
2017-08-26T01:15:03.439Z,992.86
2017-08-26T01:15:04.080Z,992.84
2017-08-26T01:15:05.230Z,992.77
2017-08-26T01:15:05.837Z,992.83
2017-08-26T01:15:06.549Z,992.88
2017-08-26T01:15:55.571Z,992.86
2017-08-26T01:20:16.021Z,992.90
2017-08-26T01:20:16.627Z,992.89
2017-08-26T01:20:17.786Z,992.98
2017-08-26T01:20:18.495Z,992.93
2017-08-26T01:20:55.764Z,992.90
2017-08-26T01:21:55.973Z,992.96
2017-08-26T01:26:03.083Z,992.94
2017-08-26T01:26:03.690Z,992.98
2017-08-26T01:26:04.510Z,992.98
2017-08-26T01:26:05.220Z,992.97
2017-08-26T01:26:55.695Z,992.96
2017-08-26T01:27:56.396Z,992.96
2017-08-26T01:33:04.754Z,992.91
2017-08-26T01:33:05.372Z,992.94
2017-08-26T01:33:06.185Z,992.93
2017-08-26T01:33:07.098Z,992.93
2017-08-26T01:33:07.807Z,992.94
2017-08-26T01:33:55.518Z,992.86
2017-08-26T01:38:04.131Z,992.78
2017-08-26T01:38:04.944Z,992.85
2017-08-26T01:38:05.552Z,992.79
2017-08-26T01:38:06.390Z,992.85
2017-08-26T01:38:55.853Z,992.96
2017-08-26T01:39:56.395Z,992.98
2017-08-26T01:44:04.489Z,992.96
2017-08-26T01:44:05.197Z,992.98
2017-08-26T01:44:05.913Z,993.03
2017-08-26T01:44:06.725Z,992.99
2017-08-26T01:44:55.727Z,993.01
2017-08-26T01:45:56.400Z,992.94
2017-08-26T01:50:06.546Z,992.98
2017-08-26T01:50:07.154Z,992.96
2017-08-26T01:50:07.969Z,992.96
2017-08-26T01:50:08.679Z,992.96
2017-08-26T01:50:55.958Z,992.93
2017-08-26T01:51:56.021Z,992.92
2017-08-26T01:56:06.075Z,992.93
2017-08-26T01:56:06.828Z,992.91
2017-08-26T01:56:07.539Z,992.85
2017-08-26T01:56:08.353Z,992.85
2017-08-26T01:56:55.867Z,992.90
2017-08-26T01:57:56.429Z,992.90
2017-08-26T02:01:04.370Z,992.86
2017-08-26T02:01:05.183Z,992.83
2017-08-26T02:01:06.012Z,992.90
2017-08-26T02:01:55.621Z,992.90
2017-08-26T02:02:57.590Z,992.87
2017-08-26T02:03:56.493Z,992.96
2017-08-26T02:04:56.441Z,992.91
2017-08-26T02:05:56.074Z,992.98
2017-08-26T02:06:56.606Z,992.96
2017-08-26T02:07:56.146Z,992.98
2017-08-26T02:08:56.657Z,992.92
2017-08-26T02:09:55.731Z,992.94
2017-08-26T02:10:55.873Z,992.89
2017-08-26T02:11:55.705Z,992.92
2017-08-26T02:12:57.062Z,992.97
2017-08-26T02:13:55.671Z,993.05
2017-08-26T02:14:57.674Z,992.95
2017-08-26T02:15:56.565Z,992.93
2017-08-26T02:16:56.998Z,992.90
2017-08-26T02:17:56.575Z,992.97
2017-08-26T02:18:56.614Z,993.03
2017-08-26T02:19:56.553Z,993.04
2017-08-26T02:20:57.015Z,993.08
2017-08-26T02:21:56.129Z,993.06
2017-08-26T02:22:57.226Z,993.03
2017-08-26T02:23:55.704Z,993.06
2017-08-26T02:24:57.058Z,992.98
2017-08-26T02:25:55.788Z,993.04
2017-08-26T02:26:56.955Z,993.02
2017-08-26T02:27:55.775Z,993.04
2017-08-26T02:28:55.851Z,993.01
2017-08-26T02:29:55.744Z,992.99
2017-08-26T02:30:56.986Z,992.94
2017-08-26T02:31:56.624Z,992.90
2017-08-26T02:32:57.203Z,992.88
2017-08-26T02:33:56.593Z,992.86
2017-08-26T02:34:57.607Z,992.88
2017-08-26T02:35:56.564Z,992.88
2017-08-26T02:36:57.231Z,992.85
2017-08-26T02:37:56.193Z,992.78
2017-08-26T02:38:56.902Z,992.83
2017-08-26T02:39:56.163Z,992.83
2017-08-26T02:40:56.941Z,992.74
2017-08-26T02:41:55.845Z,992.74
2017-08-26T02:42:57.086Z,992.67
2017-08-26T02:43:55.744Z,992.58
2017-08-26T02:44:56.016Z,992.62
2017-08-26T02:45:55.825Z,992.57
2017-08-26T02:46:57.060Z,992.60
2017-08-26T02:47:56.602Z,992.53
2017-08-26T02:48:57.004Z,992.50
2017-08-26T02:49:56.688Z,992.54
2017-08-26T02:50:57.717Z,992.44
2017-08-26T02:51:56.701Z,992.47
2017-08-26T02:52:56.743Z,992.58
2017-08-26T02:53:56.677Z,992.61
2017-08-26T02:54:57.212Z,992.67
2017-08-26T02:55:56.253Z,992.74
2017-08-26T02:56:56.937Z,992.76
2017-08-26T02:57:55.817Z,992.84
2017-08-26T02:58:57.179Z,992.95
2017-08-26T02:59:55.816Z,992.99
2017-08-26T03:00:57.148Z,993.08
2017-08-26T03:01:55.830Z,993.08
2017-08-26T03:02:57.205Z,993.08
2017-08-26T03:03:56.663Z,993.21
2017-08-26T03:04:56.910Z,993.26
2017-08-26T03:05:59.742Z,993.29
2017-08-26T03:06:56.068Z,993.43
2017-08-26T03:07:56.721Z,993.44
2017-08-26T03:08:57.739Z,993.49
2017-08-26T03:09:56.702Z,993.49
2017-08-26T03:10:57.042Z,993.52
2017-08-26T03:11:56.371Z,993.61
2017-08-26T03:12:57.470Z,993.60
2017-08-26T03:13:55.843Z,993.49
2017-08-26T03:14:57.090Z,993.52
2017-08-26T03:15:55.914Z,993.45
2017-08-26T03:16:57.068Z,993.37
2017-08-26T03:17:55.894Z,993.39
2017-08-26T03:18:56.038Z,993.24
2017-08-26T03:19:55.861Z,993.31
2017-08-26T03:20:57.020Z,993.17
2017-08-26T03:21:56.752Z,993.05
2017-08-26T03:22:56.984Z,993.04
2017-08-26T03:23:56.723Z,993.01
2017-08-26T03:24:57.256Z,993.03
2017-08-26T03:25:56.361Z,993.09
2017-08-26T03:26:58.283Z,992.98
2017-08-26T03:27:56.346Z,992.83
2017-08-26T03:28:57.091Z,992.76
2017-08-26T03:29:57.426Z,992.78
2017-08-26T03:30:57.233Z,992.74
2017-08-26T03:31:55.901Z,992.80
2017-08-26T03:32:57.076Z,992.68
2017-08-26T03:33:55.904Z,992.59
2017-08-26T03:34:58.392Z,992.45
2017-08-26T03:35:55.882Z,992.22
2017-08-26T03:36:57.342Z,992.15
2017-08-26T03:37:56.759Z,992.04
2017-08-26T03:38:57.342Z,992.03
2017-08-26T03:39:56.739Z,992.03
2017-08-26T03:40:57.302Z,992.03
2017-08-26T03:41:56.834Z,992.04
2017-08-26T03:43:34.058Z,992.04
2017-08-26T03:44:54.018Z,992.04
2017-08-26T03:44:54.842Z,992.07
2017-08-26T03:44:56.559Z,992.11
2017-08-26T03:45:56.408Z,991.94
2017-08-26T03:46:58.177Z,991.91
2017-08-26T03:47:55.963Z,991.82
2017-08-26T03:48:57.319Z,991.81
2017-08-26T03:49:55.935Z,991.78
2017-08-26T03:50:57.528Z,991.76
2017-08-26T03:51:56.812Z,991.75
2017-08-26T03:52:57.542Z,991.83
2017-08-26T03:53:59.878Z,991.69
2017-08-26T03:54:56.273Z,991.76
2017-08-26T03:55:56.840Z,991.74
2017-08-26T03:56:57.374Z,991.74
2017-08-26T03:57:56.805Z,991.85
2017-08-26T03:58:57.378Z,991.80
2017-08-26T03:59:56.468Z,992.04
2017-08-26T04:00:57.071Z,992.09
2017-08-26T04:01:55.996Z,992.02
2017-08-26T04:02:57.313Z,992.00
2017-08-26T04:03:56.065Z,992.02
2017-08-26T04:04:57.563Z,992.13
2017-08-26T04:05:56.135Z,992.16
2017-08-26T04:06:57.433Z,992.11
2017-08-26T04:07:56.028Z,992.22
2017-08-26T04:08:57.642Z,992.26
2017-08-26T04:09:56.896Z,992.22
2017-08-26T04:10:57.461Z,992.36
2017-08-26T04:11:56.870Z,992.27
2017-08-26T04:12:57.475Z,992.31
2017-08-26T04:13:56.832Z,992.39
2017-08-26T04:14:57.488Z,992.29
2017-08-26T04:15:56.505Z,992.34
2017-08-26T04:16:57.348Z,992.40
2017-08-26T04:17:56.506Z,992.33
2017-08-26T04:18:57.261Z,992.36
2017-08-26T04:19:56.071Z,992.27
2017-08-26T04:20:57.336Z,992.39
2017-08-26T04:21:56.045Z,992.32
2017-08-26T04:22:56.298Z,992.33
2017-08-26T04:23:56.119Z,992.32
2017-08-26T04:24:57.351Z,992.35
2017-08-26T04:25:56.893Z,992.35
2017-08-26T04:27:00.831Z,992.41
2017-08-26T04:27:56.048Z,992.43
2017-08-26T04:28:57.494Z,992.52
2017-08-26T04:29:56.936Z,992.57
2017-08-26T04:30:57.497Z,992.66
2017-08-26T04:31:56.509Z,992.64
2017-08-26T04:32:57.510Z,992.70
2017-08-26T04:33:56.528Z,992.74
2017-08-26T04:34:57.478Z,992.76
2017-08-26T04:35:56.109Z,992.80
2017-08-26T04:36:57.632Z,992.89
2017-08-26T04:37:56.076Z,992.98
2017-08-26T04:38:57.544Z,993.06
2017-08-26T04:39:56.161Z,993.13
2017-08-26T04:40:57.567Z,993.22
2017-08-26T04:41:56.099Z,993.38
2017-08-26T04:42:57.629Z,993.58
2017-08-26T04:43:56.983Z,993.62
2017-08-26T04:44:57.780Z,993.62
2017-08-26T04:45:56.984Z,993.59
2017-08-26T04:46:58.184Z,993.63
2017-08-26T04:47:56.567Z,993.51
2017-08-26T04:48:57.513Z,993.49
2017-08-26T04:49:56.664Z,993.49
2017-08-26T04:50:57.236Z,993.56
2017-08-26T04:51:56.182Z,993.65
2017-08-26T04:52:57.445Z,993.66
2017-08-26T04:53:56.145Z,993.61
2017-08-26T04:54:57.480Z,993.54
2017-08-26T04:55:56.200Z,993.35
2017-08-26T04:56:56.529Z,993.24
2017-08-26T04:57:56.161Z,993.15
2017-08-26T04:58:57.774Z,993.12
2017-08-26T04:59:57.100Z,993.10
2017-08-26T05:00:57.696Z,993.10
2017-08-26T05:01:57.116Z,993.16
2017-08-26T05:02:57.412Z,993.15
2017-08-26T05:03:56.545Z,993.07
2017-08-26T05:04:57.571Z,993.04
2017-08-26T05:05:56.588Z,992.94
2017-08-26T05:06:57.635Z,992.87
2017-08-26T05:07:56.222Z,992.80
2017-08-26T05:08:57.454Z,992.65
2017-08-26T05:09:56.253Z,992.51
2017-08-26T05:10:57.662Z,992.31
2017-08-26T05:11:56.344Z,992.32
2017-08-26T05:12:57.676Z,992.11
2017-08-26T05:13:56.261Z,992.14
2017-08-26T05:14:57.690Z,992.07
2017-08-26T05:15:57.064Z,992.10
2017-08-26T05:16:57.412Z,992.00
2017-08-26T05:17:57.106Z,991.96
2017-08-26T05:18:57.547Z,991.99
2017-08-26T05:19:57.244Z,992.09
2017-08-26T05:20:57.539Z,992.15
2017-08-26T05:21:56.604Z,992.12
2017-08-26T05:22:57.492Z,992.16
2017-08-26T05:23:56.290Z,992.14
2017-08-26T05:24:57.554Z,992.12
2017-08-26T05:25:56.251Z,992.06
2017-08-26T05:26:57.866Z,991.98
2017-08-26T05:27:56.256Z,992.05
2017-08-26T05:28:58.134Z,992.09
2017-08-26T05:29:56.300Z,992.05
2017-08-26T05:30:56.620Z,992.16
2017-08-26T05:31:56.357Z,992.08
2017-08-26T05:32:57.674Z,992.19
2017-08-26T05:33:57.097Z,992.26
2017-08-26T05:34:57.483Z,992.18
2017-08-26T05:35:57.101Z,992.30
2017-08-26T05:36:57.638Z,992.22
2017-08-26T05:37:56.724Z,992.26
2017-08-26T05:38:57.652Z,992.24
2017-08-26T05:39:56.308Z,992.29
2017-08-26T05:40:57.525Z,992.22
2017-08-26T05:41:56.310Z,992.22
2017-08-26T05:42:57.679Z,992.27
2017-08-26T05:43:56.342Z,992.34
2017-08-26T05:44:57.790Z,992.34
2017-08-26T05:45:56.270Z,992.30
2017-08-26T05:46:57.605Z,992.30
2017-08-26T05:47:57.179Z,992.27
2017-08-26T05:48:57.619Z,992.23
2017-08-26T05:49:57.193Z,992.17
2017-08-26T05:50:58.883Z,992.14
2017-08-26T05:51:56.307Z,992.11
2017-08-26T05:52:57.649Z,992.11
2017-08-26T05:53:56.701Z,992.18
2017-08-26T05:54:57.947Z,992.22
2017-08-26T05:55:56.767Z,992.35
2017-08-26T05:56:57.766Z,992.26
2017-08-26T05:57:56.353Z,992.19
2017-08-26T05:58:57.594Z,992.23
2017-08-26T05:59:56.422Z,992.30
2017-08-26T06:00:57.373Z,992.20
2017-08-26T06:01:56.323Z,992.16
2017-08-26T06:02:57.910Z,992.11
2017-08-26T06:03:57.098Z,992.18
2017-08-26T06:04:57.822Z,992.20
2017-08-26T06:05:57.182Z,992.36
2017-08-26T06:06:57.529Z,992.38
2017-08-26T06:07:57.161Z,992.43
2017-08-26T06:08:57.850Z,992.40
2017-08-26T06:09:56.839Z,992.34
2017-08-26T06:10:57.863Z,992.34
2017-08-26T06:11:56.345Z,992.30
2017-08-26T06:12:57.785Z,992.29
2017-08-26T06:13:56.413Z,992.31
2017-08-26T06:14:57.771Z,992.27
2017-08-26T06:15:56.519Z,992.22
2017-08-26T06:16:57.608Z,992.14
2017-08-26T06:17:56.414Z,999.16
2017-08-26T06:18:57.919Z,992.34
2017-08-26T06:19:57.239Z,992.28
2017-08-26T06:20:58.781Z,992.35
2017-08-26T06:21:56.422Z,992.27
2017-08-26T06:22:57.656Z,992.29
2017-08-26T06:23:57.199Z,992.38
2017-08-26T06:24:57.960Z,992.40
2017-08-26T06:25:56.873Z,992.50
2017-08-26T06:26:57.964Z,992.65
2017-08-26T06:27:56.847Z,992.69
2017-08-26T06:28:57.978Z,992.73
2017-08-26T06:29:56.511Z,992.81
2017-08-26T06:30:58.236Z,992.89
2017-08-26T06:31:56.434Z,992.97
2017-08-26T06:32:57.719Z,992.99
2017-08-26T06:33:56.415Z,993.03
2017-08-26T06:34:57.732Z,993.05
2017-08-26T06:35:57.289Z,993.05
2017-08-26T06:36:58.791Z,993.05
2017-08-26T06:37:56.462Z,993.05
2017-08-26T06:38:57.812Z,993.13
2017-08-26T06:39:57.249Z,993.19
2017-08-26T06:40:57.773Z,993.29
2017-08-26T06:41:56.856Z,993.31
2017-08-26T06:42:57.778Z,993.28
2017-08-26T06:43:56.843Z,993.35
2017-08-26T06:44:57.784Z,993.42
2017-08-26T06:45:56.513Z,993.56
2017-08-26T06:46:58.757Z,993.48
2017-08-26T06:47:56.506Z,993.38
2017-08-26T06:48:58.116Z,993.23
2017-08-26T06:49:56.612Z,993.01
2017-08-26T06:50:58.120Z,992.80
2017-08-26T06:51:56.504Z,992.99
2017-08-26T06:52:57.737Z,992.92
2017-08-26T06:53:57.290Z,992.80
2017-08-26T06:54:57.662Z,992.71
2017-08-26T06:55:57.352Z,992.59
2017-08-26T06:56:57.875Z,992.59
2017-08-26T06:57:57.346Z,992.53
2017-08-26T06:58:58.668Z,992.59
2017-08-26T06:59:57.048Z,992.64
2017-08-26T07:00:57.689Z,992.72
2017-08-26T07:01:56.522Z,992.87
2017-08-26T07:02:58.204Z,992.87
2017-08-26T07:03:56.596Z,992.92
2017-08-26T07:04:57.920Z,992.91
2017-08-26T07:05:56.661Z,993.13
2017-08-26T07:06:57.723Z,993.19
2017-08-26T07:07:56.571Z,993.22
2017-08-26T07:08:58.718Z,993.24
2017-08-26T07:09:56.693Z,993.27
2017-08-26T07:10:57.870Z,993.32
2017-08-26T07:11:57.316Z,993.25
2017-08-26T07:12:57.762Z,993.22
2017-08-26T07:13:56.940Z,993.27
2017-08-26T07:14:57.696Z,993.22
2017-08-26T07:15:57.038Z,993.14
2017-08-26T07:16:57.889Z,993.12
2017-08-26T07:17:56.609Z,993.04
2017-08-26T07:18:58.765Z,992.98
2017-08-26T07:19:56.593Z,992.90
2017-08-26T07:20:58.170Z,992.90
2017-08-26T07:21:56.567Z,992.88
2017-08-26T07:22:58.035Z,992.85
2017-08-26T07:23:56.637Z,992.74
2017-08-26T07:24:57.864Z,992.75
2017-08-26T07:25:57.445Z,992.75
2017-08-26T07:26:57.971Z,992.70
2017-08-26T07:27:57.646Z,992.71
2017-08-26T07:28:57.984Z,992.66
2017-08-26T07:29:57.451Z,992.54
2017-08-26T07:30:58.102Z,992.54
2017-08-26T07:31:57.037Z,992.41
2017-08-26T07:32:57.910Z,992.47
2017-08-26T07:33:56.646Z,992.37
2017-08-26T07:34:57.903Z,992.32
2017-08-26T07:35:56.651Z,992.26
2017-08-26T07:36:58.039Z,992.22
2017-08-26T07:37:56.629Z,992.16
2017-08-26T07:38:57.950Z,992.23
2017-08-26T07:39:56.595Z,992.23
2017-08-26T07:40:58.754Z,992.25
2017-08-26T07:41:56.616Z,992.30
2017-08-26T07:42:57.868Z,992.35
2017-08-26T07:43:57.440Z,992.37
2017-08-26T07:44:57.895Z,992.39
2017-08-26T07:45:57.563Z,992.44
2017-08-26T07:46:58.108Z,992.41
2017-08-26T07:47:57.101Z,992.48
2017-08-26T07:48:58.021Z,992.55
2017-08-26T07:49:56.658Z,992.54
2017-08-26T07:50:58.028Z,992.48
2017-08-26T07:51:56.673Z,992.43
2017-08-26T07:52:58.242Z,992.38
2017-08-26T07:53:56.660Z,992.33
2017-08-26T07:54:57.959Z,992.38
2017-08-26T07:55:56.789Z,992.43
2017-08-26T07:56:58.169Z,992.42
2017-08-26T07:57:56.660Z,992.35
2017-08-26T07:58:58.183Z,992.28
2017-08-26T07:59:57.462Z,992.31
2017-08-26T08:01:01.738Z,992.37
2017-08-26T08:01:56.711Z,992.32
2017-08-26T08:02:58.084Z,992.40
2017-08-26T08:03:57.115Z,992.45
2017-08-26T08:04:58.028Z,992.44
2017-08-26T08:05:56.720Z,992.52
2017-08-26T08:06:58.238Z,992.46
2017-08-26T08:07:56.753Z,992.54
2017-08-26T08:08:58.330Z,992.50
2017-08-26T08:09:56.773Z,992.48
2017-08-26T08:10:58.459Z,992.45
2017-08-26T08:11:56.808Z,992.52
2017-08-26T08:12:58.282Z,992.47
2017-08-26T08:13:56.741Z,992.55
2017-08-26T08:14:57.889Z,992.58
2017-08-26T08:16:18.640Z,992.60
2017-08-26T08:16:19.253Z,992.60
2017-08-26T08:16:57.527Z,992.63
2017-08-26T08:17:57.626Z,992.74
2017-08-26T08:18:57.901Z,992.77
2017-08-26T08:19:57.199Z,992.81
2017-08-26T08:20:58.426Z,992.86
2017-08-26T08:21:57.229Z,992.85
2017-08-26T08:22:58.052Z,992.98
2017-08-26T08:23:56.724Z,992.92
2017-08-26T08:24:58.166Z,992.96
2017-08-26T08:25:56.903Z,992.87
2017-08-26T08:26:58.078Z,992.86
2017-08-26T08:27:56.748Z,992.92
2017-08-26T08:28:59.250Z,992.89
2017-08-26T08:29:56.826Z,992.86
2017-08-26T08:33:25.544Z,992.87
2017-08-26T08:33:26.155Z,992.84
2017-08-26T08:33:26.759Z,992.87
2017-08-26T08:33:57.052Z,992.87
2017-08-26T08:34:58.318Z,992.84
2017-08-26T08:37:42.686Z,992.86
2017-08-26T08:37:43.598Z,992.88
2017-08-26T08:37:56.848Z,992.94
2017-08-26T08:38:59.205Z,992.92
2017-08-26T08:39:56.801Z,992.99
2017-08-26T08:40:57.970Z,992.88
2017-08-26T08:41:56.827Z,992.94
2017-08-26T08:42:58.179Z,992.85
2017-08-26T08:43:56.868Z,992.82
2017-08-26T08:44:58.276Z,992.85
2017-08-26T08:45:56.828Z,992.77
2017-08-26T08:46:58.206Z,992.75
2017-08-26T08:47:57.689Z,992.88
2017-08-26T08:48:58.124Z,992.85
2017-08-26T08:49:57.785Z,992.83
2017-08-26T08:50:58.128Z,992.85
2017-08-26T08:51:57.190Z,992.74
2017-08-26T08:52:58.063Z,992.71
2017-08-26T08:53:57.304Z,992.70
2017-08-26T08:54:58.415Z,992.70
2017-08-26T08:55:56.885Z,992.71
2017-08-26T08:56:57.984Z,992.50
2017-08-26T08:57:56.835Z,992.59
2017-08-26T08:58:58.187Z,992.58
2017-08-26T08:59:56.935Z,992.51
2017-08-26T09:00:58.969Z,992.49
2017-08-26T09:01:56.946Z,992.49
2017-08-26T09:02:58.215Z,992.53
2017-08-26T09:03:57.733Z,992.54
2017-08-26T09:04:57.952Z,992.47
2017-08-26T09:05:57.738Z,992.49
2017-08-26T09:06:58.150Z,992.51
2017-08-26T09:07:57.706Z,992.52
2017-08-26T09:08:58.521Z,992.43
2017-08-26T09:09:57.286Z,992.52
2017-08-26T09:10:58.306Z,992.46
2017-08-26T09:11:57.975Z,992.43
2017-08-26T09:12:58.193Z,992.38
2017-08-26T09:13:56.880Z,992.38
2017-08-26T09:14:58.391Z,992.44
2017-08-26T09:15:57.001Z,992.42
2017-08-26T09:16:58.323Z,992.39
2017-08-26T09:17:56.889Z,992.58
2017-08-26T09:18:59.477Z,992.51
2017-08-26T09:19:57.047Z,992.56
2017-08-26T09:20:58.919Z,992.52
2017-08-26T09:21:56.968Z,992.50
2017-08-26T09:22:58.260Z,992.45
2017-08-26T09:23:57.787Z,992.39
2017-08-26T09:24:58.265Z,992.44
2017-08-26T09:25:57.483Z,992.46
2017-08-26T09:26:58.345Z,992.48
2017-08-26T09:27:57.394Z,992.42
2017-08-26T09:28:58.497Z,992.37
2017-08-26T09:29:56.956Z,992.43
2017-08-26T09:30:58.402Z,992.37
2017-08-26T09:31:56.925Z,992.42
2017-08-26T09:32:58.218Z,992.39
2017-08-26T09:33:56.942Z,992.40
2017-08-26T09:34:57.805Z,992.41
2017-08-26T09:35:57.786Z,992.42
2017-08-26T09:36:58.245Z,992.43
2017-08-26T09:37:57.748Z,992.36
2017-08-26T09:38:58.158Z,992.36
2017-08-26T09:39:57.834Z,992.30
2017-08-26T09:40:58.571Z,992.34
2017-08-26T09:41:57.836Z,992.38
2017-08-26T09:42:58.644Z,992.34
2017-08-26T09:43:57.433Z,992.30
2017-08-26T09:44:58.394Z,992.33
2017-08-26T09:45:57.021Z,992.23
2017-08-26T09:46:58.706Z,992.22
2017-08-26T09:47:57.113Z,992.13
2017-08-26T09:48:58.525Z,992.13
2017-08-26T09:49:57.013Z,992.17
2017-08-26T09:50:58.426Z,992.14
2017-08-26T09:51:57.042Z,992.10
2017-08-26T09:52:58.449Z,992.12
2017-08-26T09:53:57.812Z,992.05
2017-08-26T09:54:58.114Z,992.02
2017-08-26T09:55:57.893Z,992.00
2017-08-26T09:56:58.191Z,992.04
2017-08-26T09:57:57.854Z,991.95
2017-08-26T09:58:58.756Z,991.93
2017-08-26T09:59:57.421Z,991.90
2017-08-26T10:00:58.402Z,991.85
2017-08-26T10:01:57.468Z,991.89
2017-08-26T10:02:58.074Z,991.93
2017-08-26T10:03:57.064Z,991.92
2017-08-26T10:04:58.593Z,991.84
2017-08-26T10:05:56.938Z,991.90
2017-08-26T10:06:58.989Z,991.86
2017-08-26T10:07:56.979Z,991.85
2017-08-26T10:08:59.336Z,991.79
2017-08-26T10:09:56.997Z,991.80
2017-08-26T10:10:58.063Z,991.74
2017-08-26T10:11:57.769Z,991.70
2017-08-26T10:12:58.492Z,991.76
2017-08-26T10:13:57.905Z,991.75
2017-08-26T10:14:58.490Z,991.65
2017-08-26T10:15:57.404Z,991.66
2017-08-26T10:16:59.679Z,991.71
2017-08-26T10:17:57.029Z,991.65
2017-08-26T10:18:58.580Z,991.64
2017-08-26T10:19:56.992Z,991.58
2017-08-26T10:20:58.322Z,991.56
2017-08-26T10:21:57.062Z,991.49
2017-08-26T10:22:59.023Z,991.49
2017-08-26T10:23:57.060Z,991.53
2017-08-26T10:24:58.159Z,991.52
2017-08-26T10:25:57.794Z,991.46
2017-08-26T10:26:58.271Z,991.49
2017-08-26T10:27:57.958Z,991.48
2017-08-26T10:28:58.384Z,991.48
2017-08-26T10:29:57.521Z,991.42
2017-08-26T10:30:58.258Z,991.49
2017-08-26T10:31:57.484Z,991.47
2017-08-26T10:32:59.419Z,991.43
2017-08-26T10:33:57.130Z,991.35
2017-08-26T10:34:58.709Z,991.32
2017-08-26T10:35:57.034Z,991.32
2017-08-26T10:36:58.490Z,991.38
2017-08-26T10:37:57.052Z,991.36
2017-08-26T10:38:58.627Z,991.32
2017-08-26T10:39:57.036Z,991.38
2017-08-26T10:40:59.420Z,991.41
2017-08-26T10:41:57.165Z,991.30
2017-08-26T10:42:58.381Z,991.30
2017-08-26T10:43:57.966Z,991.32
2017-08-26T10:44:58.395Z,991.32
2017-08-26T10:45:58.131Z,991.32
2017-08-26T10:46:58.299Z,991.28
2017-08-26T10:47:57.725Z,991.26
2017-08-26T10:48:58.480Z,991.31
2017-08-26T10:49:57.564Z,991.26
2017-08-26T10:50:58.396Z,991.30
2017-08-26T10:51:57.078Z,991.26
2017-08-26T10:52:58.421Z,991.26
2017-08-26T10:53:57.123Z,991.24
2017-08-26T10:54:58.533Z,991.28
2017-08-26T10:55:57.034Z,991.26
2017-08-26T10:56:59.328Z,991.25
2017-08-26T10:57:57.080Z,991.23
2017-08-26T10:58:58.438Z,991.21
2017-08-26T10:59:58.047Z,991.11
2017-08-26T11:00:58.473Z,991.19
2017-08-26T11:01:57.512Z,991.16
2017-08-26T11:02:58.569Z,991.15
2017-08-26T11:03:58.168Z,991.07
2017-08-26T11:04:59.085Z,991.10
2017-08-26T11:05:57.580Z,991.06
2017-08-26T11:06:58.495Z,991.02
2017-08-26T11:07:57.171Z,990.95
2017-08-26T11:08:58.996Z,990.98
2017-08-26T11:09:57.140Z,990.92
2017-08-26T11:10:58.727Z,990.93
2017-08-26T11:11:57.142Z,990.89
2017-08-26T11:12:58.651Z,990.94
2017-08-26T11:13:57.149Z,990.96
2017-08-26T11:14:58.703Z,990.89
2017-08-26T11:15:57.955Z,990.97
2017-08-26T11:16:58.775Z,990.99
2017-08-26T11:17:58.004Z,991.00
2017-08-26T11:18:59.177Z,991.03
2017-08-26T11:19:57.568Z,990.98
2017-08-26T11:20:58.632Z,990.95
2017-08-26T11:21:57.891Z,990.96
2017-08-26T11:22:59.015Z,990.95
2017-08-26T11:23:57.247Z,990.87
2017-08-26T11:24:58.930Z,990.91
2017-08-26T11:25:57.184Z,990.95
2017-08-26T11:26:59.325Z,990.99
2017-08-26T11:27:57.177Z,991.03
2017-08-26T11:28:58.852Z,990.93
2017-08-26T11:29:57.398Z,990.97
2017-08-26T11:30:59.032Z,990.91
2017-08-26T11:31:57.647Z,990.91
2017-08-26T11:32:57.717Z,990.91
2017-08-26T11:33:57.320Z,990.81
2017-08-26T11:34:58.588Z,990.82
2017-08-26T11:35:57.727Z,990.83
2017-08-26T11:36:58.519Z,990.84
2017-08-26T11:37:57.621Z,990.80
2017-08-26T11:38:59.110Z,990.73
2017-08-26T11:39:57.757Z,990.68
2017-08-26T11:40:58.937Z,990.71
2017-08-26T11:41:57.185Z,990.77
2017-08-26T11:42:58.517Z,990.67
2017-08-26T11:43:57.424Z,990.73
2017-08-26T11:44:57.476Z,990.66
2017-08-26T11:45:57.225Z,990.61
2017-08-26T11:46:58.672Z,990.66
2017-08-26T11:47:58.199Z,990.60
2017-08-26T11:48:58.415Z,990.63
2017-08-26T11:49:57.944Z,990.65
2017-08-26T11:50:58.689Z,990.68
2017-08-26T11:51:58.380Z,990.60
2017-08-26T11:52:58.631Z,990.63
2017-08-26T11:53:57.832Z,990.68
2017-08-26T11:54:58.507Z,990.61
2017-08-26T11:55:58.064Z,990.52
2017-08-26T11:56:58.815Z,990.49
2017-08-26T11:57:57.286Z,990.56
2017-08-26T11:58:58.651Z,990.71
2017-08-26T11:59:57.238Z,990.64
2017-08-26T12:00:58.636Z,990.58
2017-08-26T12:01:57.383Z,990.50
2017-08-26T12:02:58.496Z,990.52
2017-08-26T12:03:58.173Z,990.48
2017-08-26T12:04:58.208Z,990.45
2017-08-26T12:05:57.987Z,990.48
2017-08-26T12:06:58.233Z,990.45
2017-08-26T12:07:58.198Z,990.46
2017-08-26T12:08:58.928Z,990.35
2017-08-26T12:09:58.436Z,990.33
2017-08-26T12:10:58.633Z,990.45
2017-08-26T12:11:57.824Z,990.35
2017-08-26T12:12:58.632Z,990.33
2017-08-26T12:13:57.336Z,990.34
2017-08-26T12:14:58.507Z,990.33
2017-08-26T12:15:57.420Z,990.31
2017-08-26T12:16:58.757Z,990.34
2017-08-26T12:17:57.373Z,990.34
2017-08-26T12:18:59.181Z,990.32
2017-08-26T12:19:57.412Z,990.33
2017-08-26T12:20:59.617Z,990.32
2017-08-26T12:21:57.545Z,990.23
2017-08-26T12:22:59.013Z,990.26
2017-08-26T12:23:58.325Z,990.27
2017-08-26T12:24:58.648Z,990.23
2017-08-26T12:25:58.036Z,990.18
2017-08-26T12:26:59.461Z,990.25